sensor_id;sensor_type;location;lat;lon;timestamp;P1;durP1;ratioP1;P2;durP2;ratioP2
33190;SDS011;19554;42.652;23.364;2023-08-07T00:02:23;2.03;;;1.77;;
33190;SDS011;19554;42.652;23.364;2023-08-07T00:04:48;2.25;;;1.95;;
33190;SDS011;19554;42.652;23.364;2023-08-07T00:07:13;5.68;;;2.15;;
33190;SDS011;19554;42.652;23.364;2023-08-07T00:09:39;3.05;;;2.08;;
33190;SDS011;19554;42.652;23.364;2023-08-07T00:12:04;3.00;;;2.05;;
33190;SDS011;19554;42.652;23.364;2023-08-07T00:14:30;3.40;;;1.90;;
33190;SDS011;19554;42.652;23.364;2023-08-07T00:16:55;2.67;;;2.35;;
33190;SDS011;19554;42.652;23.364;2023-08-07T00:19:20;2.13;;;1.80;;
33190;SDS011;19554;42.652;23.364;2023-08-07T00:21:46;5.90;;;2.13;;
33190;SDS011;19554;42.652;23.364;2023-08-07T00:24:11;3.00;;;1.77;;
33190;SDS011;19554;42.652;23.364;2023-08-07T00:26:36;3.15;;;2.20;;
33190;SDS011;19554;42.652;23.364;2023-08-07T00:29:02;2.08;;;1.83;;
33190;SDS011;19554;42.652;23.364;2023-08-07T00:31:27;2.40;;;2.00;;
33190;SDS011;19554;42.652;23.364;2023-08-07T00:33:56;2.05;;;1.90;;
33190;SDS011;19554;42.652;23.364;2023-08-07T00:36:22;3.08;;;2.00;;
33190;SDS011;19554;42.652;23.364;2023-08-07T00:38:48;2.45;;;2.13;;
33190;SDS011;19554;42.652;23.364;2023-08-07T00:41:13;2.67;;;2.35;;
33190;SDS011;19554;42.652;23.364;2023-08-07T00:43:39;1.90;;;1.77;;
33190;SDS011;19554;42.652;23.364;2023-08-07T00:46:04;2.20;;;2.00;;
33190;SDS011;19554;42.652;23.364;2023-08-07T00:48:30;2.63;;;1.83;;
33190;SDS011;19554;42.652;23.364;2023-08-07T00:50:56;2.67;;;2.33;;
33190;SDS011;19554;42.652;23.364;2023-08-07T00:53:22;2.45;;;1.95;;
33190;SDS011;19554;42.652;23.364;2023-08-07T00:55:48;2.33;;;2.13;;
33190;SDS011;19554;42.652;23.364;2023-08-07T00:58:14;2.65;;;2.45;;
33190;SDS011;19554;42.652;23.364;2023-08-07T01:00:39;2.40;;;2.20;;
33190;SDS011;19554;42.652;23.364;2023-08-07T01:03:06;3.60;;;2.20;;
33190;SDS011;19554;42.652;23.364;2023-08-07T01:05:32;2.42;;;2.13;;
33190;SDS011;19554;42.652;23.364;2023-08-07T01:07:59;2.22;;;2.00;;
33190;SDS011;19554;42.652;23.364;2023-08-07T01:10:30;2.33;;;2.13;;
33190;SDS011;19554;42.652;23.364;2023-08-07T01:13:05;2.67;;;2.47;;
33190;SDS011;19554;42.652;23.364;2023-08-07T01:15:54;2.60;;;2.40;;
33190;SDS011;19554;42.652;23.364;2023-08-07T01:18:24;2.38;;;2.17;;
33190;SDS011;19554;42.652;23.364;2023-08-07T01:20:51;2.88;;;2.35;;
33190;SDS011;19554;42.652;23.364;2023-08-07T01:23:17;3.50;;;2.45;;
33190;SDS011;19554;42.652;23.364;2023-08-07T01:25:42;3.88;;;2.28;;
33190;SDS011;19554;42.652;23.364;2023-08-07T01:30:42;10.93;;;2.95;;
33190;SDS011;19554;42.652;23.364;2023-08-07T01:35:49;3.10;;;2.90;;
33190;SDS011;19554;42.652;23.364;2023-08-07T01:38:18;4.80;;;3.35;;
33190;SDS011;19554;42.652;23.364;2023-08-07T01:40:48;3.92;;;2.88;;
33190;SDS011;19554;42.652;23.364;2023-08-07T01:43:16;3.75;;;3.15;;
33190;SDS011;19554;42.652;23.364;2023-08-07T01:45:43;3.70;;;3.35;;
33190;SDS011;19554;42.652;23.364;2023-08-07T01:48:09;4.10;;;3.33;;
33190;SDS011;19554;42.652;23.364;2023-08-07T01:50:34;3.30;;;3.00;;
33190;SDS011;19554;42.652;23.364;2023-08-07T01:53:01;5.57;;;3.45;;
33190;SDS011;19554;42.652;23.364;2023-08-07T01:55:27;3.15;;;2.80;;
33190;SDS011;19554;42.652;23.364;2023-08-07T01:57:53;2.90;;;2.60;;
33190;SDS011;19554;42.652;23.364;2023-08-07T02:00:18;3.08;;;2.55;;
33190;SDS011;19554;42.652;23.364;2023-08-07T02:02:44;3.47;;;2.60;;
33190;SDS011;19554;42.652;23.364;2023-08-07T02:05:11;3.30;;;2.97;;
33190;SDS011;19554;42.652;23.364;2023-08-07T02:07:37;2.97;;;2.70;;
33190;SDS011;19554;42.652;23.364;2023-08-07T02:10:02;2.97;;;2.78;;
33190;SDS011;19554;42.652;23.364;2023-08-07T02:12:28;4.63;;;2.45;;
33190;SDS011;19554;42.652;23.364;2023-08-07T02:14:57;2.95;;;2.63;;
33190;SDS011;19554;42.652;23.364;2023-08-07T02:17:24;4.90;;;2.75;;
33190;SDS011;19554;42.652;23.364;2023-08-07T02:19:50;2.92;;;2.70;;
33190;SDS011;19554;42.652;23.364;2023-08-07T02:22:15;3.03;;;2.72;;
33190;SDS011;19554;42.652;23.364;2023-08-07T02:24:41;4.10;;;3.03;;
33190;SDS011;19554;42.652;23.364;2023-08-07T02:27:06;3.25;;;2.95;;
33190;SDS011;19554;42.652;23.364;2023-08-07T02:29:32;3.33;;;3.00;;
33190;SDS011;19554;42.652;23.364;2023-08-07T02:31:59;3.63;;;3.28;;
33190;SDS011;19554;42.652;23.364;2023-08-07T02:34:26;3.38;;;3.08;;
33190;SDS011;19554;42.652;23.364;2023-08-07T02:36:52;3.47;;;3.17;;
33190;SDS011;19554;42.652;23.364;2023-08-07T02:39:17;3.55;;;3.20;;
33190;SDS011;19554;42.652;23.364;2023-08-07T02:41:42;3.20;;;2.90;;
33190;SDS011;19554;42.652;23.364;2023-08-07T02:44:08;4.20;;;3.15;;
33190;SDS011;19554;42.652;23.364;2023-08-07T02:46:33;6.43;;;3.42;;
33190;SDS011;19554;42.652;23.364;2023-08-07T02:49:01;3.88;;;3.20;;
33190;SDS011;19554;42.652;23.364;2023-08-07T02:51:26;3.35;;;3.05;;
33190;SDS011;19554;42.652;23.364;2023-08-07T02:53:52;3.85;;;3.30;;
33190;SDS011;19554;42.652;23.364;2023-08-07T02:56:17;4.13;;;3.80;;
33190;SDS011;19554;42.652;23.364;2023-08-07T02:58:42;3.78;;;3.47;;
33190;SDS011;19554;42.652;23.364;2023-08-07T03:01:08;4.28;;;3.20;;
33190;SDS011;19554;42.652;23.364;2023-08-07T03:03:34;4.55;;;3.28;;
33190;SDS011;19554;42.652;23.364;2023-08-07T03:05:59;4.43;;;3.25;;
33190;SDS011;19554;42.652;23.364;2023-08-07T03:08:25;4.22;;;2.97;;
33190;SDS011;19554;42.652;23.364;2023-08-07T03:10:54;3.15;;;2.95;;
33190;SDS011;19554;42.652;23.364;2023-08-07T03:13:21;3.30;;;2.97;;
33190;SDS011;19554;42.652;23.364;2023-08-07T03:15:46;3.80;;;3.03;;
33190;SDS011;19554;42.652;23.364;2023-08-07T03:18:14;5.22;;;3.20;;
33190;SDS011;19554;42.652;23.364;2023-08-07T03:20:39;3.28;;;3.08;;
33190;SDS011;19554;42.652;23.364;2023-08-07T03:23:05;4.78;;;3.33;;
33190;SDS011;19554;42.652;23.364;2023-08-07T03:25:30;3.60;;;3.03;;
33190;SDS011;19554;42.652;23.364;2023-08-07T03:27:55;3.55;;;2.88;;
33190;SDS011;19554;42.652;23.364;2023-08-07T03:30:21;3.50;;;3.20;;
33190;SDS011;19554;42.652;23.364;2023-08-07T03:32:46;3.03;;;2.80;;
33190;SDS011;19554;42.652;23.364;2023-08-07T03:35:12;3.58;;;3.13;;
33190;SDS011;19554;42.652;23.364;2023-08-07T03:37:37;5.47;;;3.50;;
33190;SDS011;19554;42.652;23.364;2023-08-07T03:40:02;2.88;;;2.63;;
33190;SDS011;19554;42.652;23.364;2023-08-07T03:42:28;3.55;;;3.25;;
33190;SDS011;19554;42.652;23.364;2023-08-07T03:44:54;4.70;;;3.10;;
33190;SDS011;19554;42.652;23.364;2023-08-07T03:47:19;4.07;;;3.67;;
33190;SDS011;19554;42.652;23.364;2023-08-07T03:49:44;5.38;;;3.28;;
33190;SDS011;19554;42.652;23.364;2023-08-07T03:52:10;4.22;;;3.35;;
33190;SDS011;19554;42.652;23.364;2023-08-07T03:54:35;3.80;;;3.50;;
33190;SDS011;19554;42.652;23.364;2023-08-07T03:57:01;4.38;;;3.50;;
33190;SDS011;19554;42.652;23.364;2023-08-07T03:59:27;3.42;;;3.13;;
33190;SDS011;19554;42.652;23.364;2023-08-07T04:01:52;3.85;;;3.45;;
33190;SDS011;19554;42.652;23.364;2023-08-07T04:04:17;3.75;;;2.97;;
33190;SDS011;19554;42.652;23.364;2023-08-07T04:06:43;3.80;;;2.80;;
33190;SDS011;19554;42.652;23.364;2023-08-07T04:09:09;3.20;;;2.90;;
33190;SDS011;19554;42.652;23.364;2023-08-07T04:11:35;3.35;;;3.03;;
33190;SDS011;19554;42.652;23.364;2023-08-07T04:14:01;7.95;;;3.10;;
33190;SDS011;19554;42.652;23.364;2023-08-07T04:16:26;6.38;;;2.97;;
33190;SDS011;19554;42.652;23.364;2023-08-07T04:18:52;3.20;;;2.95;;
33190;SDS011;19554;42.652;23.364;2023-08-07T04:21:17;2.95;;;2.65;;
33190;SDS011;19554;42.652;23.364;2023-08-07T04:23:43;4.85;;;4.05;;
33190;SDS011;19554;42.652;23.364;2023-08-07T04:26:08;4.78;;;4.05;;
33190;SDS011;19554;42.652;23.364;2023-08-07T04:28:33;3.00;;;2.70;;
33190;SDS011;19554;42.652;23.364;2023-08-07T04:30:59;4.43;;;3.42;;
33190;SDS011;19554;42.652;23.364;2023-08-07T04:33:24;3.95;;;3.55;;
33190;SDS011;19554;42.652;23.364;2023-08-07T04:35:50;3.38;;;3.08;;
33190;SDS011;19554;42.652;23.364;2023-08-07T04:38:15;3.40;;;2.92;;
33190;SDS011;19554;42.652;23.364;2023-08-07T04:40:47;2.80;;;2.60;;
33190;SDS011;19554;42.652;23.364;2023-08-07T04:43:14;4.53;;;4.10;;
33190;SDS011;19554;42.652;23.364;2023-08-07T04:45:41;3.45;;;3.15;;
33190;SDS011;19554;42.652;23.364;2023-08-07T04:48:07;4.25;;;2.85;;
33190;SDS011;19554;42.652;23.364;2023-08-07T04:50:33;4.05;;;3.20;;
33190;SDS011;19554;42.652;23.364;2023-08-07T04:52:58;4.05;;;2.97;;
33190;SDS011;19554;42.652;23.364;2023-08-07T04:55:23;5.93;;;3.15;;
33190;SDS011;19554;42.652;23.364;2023-08-07T04:57:50;4.78;;;2.97;;
33190;SDS011;19554;42.652;23.364;2023-08-07T05:00:19;5.43;;;3.00;;
33190;SDS011;19554;42.652;23.364;2023-08-07T05:02:44;3.53;;;2.88;;
33190;SDS011;19554;42.652;23.364;2023-08-07T05:05:10;3.95;;;3.00;;
33190;SDS011;19554;42.652;23.364;2023-08-07T05:07:35;3.33;;;3.03;;
33190;SDS011;19554;42.652;23.364;2023-08-07T05:10:01;6.30;;;3.70;;
33190;SDS011;19554;42.652;23.364;2023-08-07T05:12:27;3.35;;;3.05;;
33190;SDS011;19554;42.652;23.364;2023-08-07T05:14:53;2.67;;;2.47;;
33190;SDS011;19554;42.652;23.364;2023-08-07T05:17:18;2.65;;;2.45;;
33190;SDS011;19554;42.652;23.364;2023-08-07T05:19:44;3.90;;;3.03;;
33190;SDS011;19554;42.652;23.364;2023-08-07T05:22:09;4.63;;;2.70;;
33190;SDS011;19554;42.652;23.364;2023-08-07T05:24:35;2.50;;;2.30;;
33190;SDS011;19554;42.652;23.364;2023-08-07T05:27:04;3.58;;;3.13;;
33190;SDS011;19554;42.652;23.364;2023-08-07T05:29:33;4.18;;;3.08;;
33190;SDS011;19554;42.652;23.364;2023-08-07T05:31:58;3.03;;;2.70;;
33190;SDS011;19554;42.652;23.364;2023-08-07T05:34:24;7.03;;;4.28;;
33190;SDS011;19554;42.652;23.364;2023-08-07T05:36:49;6.43;;;2.63;;
33190;SDS011;19554;42.652;23.364;2023-08-07T05:39:14;2.58;;;2.38;;
33190;SDS011;19554;42.652;23.364;2023-08-07T05:41:40;4.68;;;2.58;;
33190;SDS011;19554;42.652;23.364;2023-08-07T05:44:05;4.28;;;2.28;;
33190;SDS011;19554;42.652;23.364;2023-08-07T05:46:30;2.85;;;2.10;;
33190;SDS011;19554;42.652;23.364;2023-08-07T05:48:56;6.30;;;2.33;;
33190;SDS011;19554;42.652;23.364;2023-08-07T05:51:21;4.03;;;2.63;;
33190;SDS011;19554;42.652;23.364;2023-08-07T05:53:47;3.40;;;2.03;;
33190;SDS011;19554;42.652;23.364;2023-08-07T05:56:12;3.40;;;1.88;;
33190;SDS011;19554;42.652;23.364;2023-08-07T05:58:37;2.20;;;2.00;;
33190;SDS011;19554;42.652;23.364;2023-08-07T06:01:03;2.75;;;2.33;;
33190;SDS011;19554;42.652;23.364;2023-08-07T06:03:28;6.07;;;2.03;;
33190;SDS011;19554;42.652;23.364;2023-08-07T06:05:53;2.38;;;2.05;;
33190;SDS011;19554;42.652;23.364;2023-08-07T06:08:19;2.85;;;2.30;;
33190;SDS011;19554;42.652;23.364;2023-08-07T06:10:45;3.80;;;2.28;;
33190;SDS011;19554;42.652;23.364;2023-08-07T06:13:10;2.97;;;2.28;;
33190;SDS011;19554;42.652;23.364;2023-08-07T06:15:35;2.60;;;2.22;;
33190;SDS011;19554;42.652;23.364;2023-08-07T06:18:01;3.72;;;1.90;;
33190;SDS011;19554;42.652;23.364;2023-08-07T06:20:27;2.22;;;1.77;;
33190;SDS011;19554;42.652;23.364;2023-08-07T06:22:52;2.70;;;2.40;;
33190;SDS011;19554;42.652;23.364;2023-08-07T06:25:18;2.50;;;2.30;;
33190;SDS011;19554;42.652;23.364;2023-08-07T06:27:44;3.42;;;2.75;;
33190;SDS011;19554;42.652;23.364;2023-08-07T06:30:10;2.63;;;2.20;;
33190;SDS011;19554;42.652;23.364;2023-08-07T06:32:36;2.80;;;2.35;;
33190;SDS011;19554;42.652;23.364;2023-08-07T06:35:02;1.83;;;1.60;;
33190;SDS011;19554;42.652;23.364;2023-08-07T06:37:28;1.75;;;1.63;;
33190;SDS011;19554;42.652;23.364;2023-08-07T06:39:53;2.33;;;2.05;;
33190;SDS011;19554;42.652;23.364;2023-08-07T06:42:19;2.88;;;1.55;;
33190;SDS011;19554;42.652;23.364;2023-08-07T06:44:44;2.85;;;1.80;;
33190;SDS011;19554;42.652;23.364;2023-08-07T06:47:09;2.15;;;1.60;;
33190;SDS011;19554;42.652;23.364;2023-08-07T06:49:35;3.17;;;1.73;;
33190;SDS011;19554;42.652;23.364;2023-08-07T06:52:01;1.48;;;1.35;;
33190;SDS011;19554;42.652;23.364;2023-08-07T06:54:27;1.52;;;1.42;;
33190;SDS011;19554;42.652;23.364;2023-08-07T06:56:52;1.42;;;1.20;;
33190;SDS011;19554;42.652;23.364;2023-08-07T06:59:18;2.15;;;1.50;;
33190;SDS011;19554;42.652;23.364;2023-08-07T07:01:43;2.53;;;1.50;;
33190;SDS011;19554;42.652;23.364;2023-08-07T07:04:08;2.53;;;1.23;;
33190;SDS011;19554;42.652;23.364;2023-08-07T07:06:34;3.72;;;1.80;;
33190;SDS011;19554;42.652;23.364;2023-08-07T07:09:02;3.53;;;1.73;;
33190;SDS011;19554;42.652;23.364;2023-08-07T07:11:28;1.50;;;1.35;;
33190;SDS011;19554;42.652;23.364;2023-08-07T07:13:53;2.03;;;1.30;;
33190;SDS011;19554;42.652;23.364;2023-08-07T07:16:19;3.08;;;1.27;;
33190;SDS011;19554;42.652;23.364;2023-08-07T07:18:46;4.30;;;1.05;;
33190;SDS011;19554;42.652;23.364;2023-08-07T07:21:15;1.48;;;1.20;;
33190;SDS011;19554;42.652;23.364;2023-08-07T07:23:41;1.02;;;0.93;;
33190;SDS011;19554;42.652;23.364;2023-08-07T07:26:06;1.48;;;1.30;;
33190;SDS011;19554;42.652;23.364;2023-08-07T07:28:31;1.30;;;1.20;;
33190;SDS011;19554;42.652;23.364;2023-08-07T07:30:57;2.13;;;1.08;;
33190;SDS011;19554;42.652;23.364;2023-08-07T07:33:22;2.15;;;1.13;;
33190;SDS011;19554;42.652;23.364;2023-08-07T07:35:48;2.35;;;1.40;;
33190;SDS011;19554;42.652;23.364;2023-08-07T07:38:13;1.77;;;1.60;;
33190;SDS011;19554;42.652;23.364;2023-08-07T07:40:40;8.60;;;1.75;;
33190;SDS011;19554;42.652;23.364;2023-08-07T07:43:06;2.00;;;1.80;;
33190;SDS011;19554;42.652;23.364;2023-08-07T07:45:31;2.78;;;1.33;;
33190;SDS011;19554;42.652;23.364;2023-08-07T07:47:58;5.53;;;1.55;;
33190;SDS011;19554;42.652;23.364;2023-08-07T07:50:24;2.10;;;1.10;;
33190;SDS011;19554;42.652;23.364;2023-08-07T07:52:49;1.73;;;1.35;;
33190;SDS011;19554;42.652;23.364;2023-08-07T07:55:15;1.85;;;1.60;;
33190;SDS011;19554;42.652;23.364;2023-08-07T07:57:40;1.60;;;1.23;;
33190;SDS011;19554;42.652;23.364;2023-08-07T08:00:06;8.93;;;1.50;;
33190;SDS011;19554;42.652;23.364;2023-08-07T08:02:35;1.33;;;1.23;;
33190;SDS011;19554;42.652;23.364;2023-08-07T08:05:10;4.28;;;1.52;;
33190;SDS011;19554;42.652;23.364;2023-08-07T08:07:37;1.83;;;1.60;;
33190;SDS011;19554;42.652;23.364;2023-08-07T08:10:05;1.38;;;1.25;;
33190;SDS011;19554;42.652;23.364;2023-08-07T08:12:34;2.55;;;1.65;;
33190;SDS011;19554;42.652;23.364;2023-08-07T08:15:00;2.33;;;1.73;;
33190;SDS011;19554;42.652;23.364;2023-08-07T08:17:25;1.83;;;1.65;;
33190;SDS011;19554;42.652;23.364;2023-08-07T08:19:51;1.80;;;1.70;;
33190;SDS011;19554;42.652;23.364;2023-08-07T08:22:16;1.52;;;1.42;;
33190;SDS011;19554;42.652;23.364;2023-08-07T08:24:41;3.58;;;1.70;;
33190;SDS011;19554;42.652;23.364;2023-08-07T08:27:07;3.88;;;2.03;;
33190;SDS011;19554;42.652;23.364;2023-08-07T08:29:32;4.43;;;1.77;;
33190;SDS011;19554;42.652;23.364;2023-08-07T08:31:57;44.42;;;3.92;;
33190;SDS011;19554;42.652;23.364;2023-08-07T08:34:23;11.70;;;2.85;;
33190;SDS011;19554;42.652;23.364;2023-08-07T08:36:50;4.10;;;2.10;;
33190;SDS011;19554;42.652;23.364;2023-08-07T08:39:16;1.45;;;1.30;;
33190;SDS011;19554;42.652;23.364;2023-08-07T08:41:41;2.97;;;1.75;;
33190;SDS011;19554;42.652;23.364;2023-08-07T08:44:10;1.50;;;1.40;;
33190;SDS011;19554;42.652;23.364;2023-08-07T08:46:38;2.70;;;1.60;;
33190;SDS011;19554;42.652;23.364;2023-08-07T08:49:08;2.83;;;1.60;;
33190;SDS011;19554;42.652;23.364;2023-08-07T08:51:35;2.85;;;1.55;;
33190;SDS011;19554;42.652;23.364;2023-08-07T08:54:01;1.60;;;1.50;;
33190;SDS011;19554;42.652;23.364;2023-08-07T08:56:28;2.58;;;1.58;;
33190;SDS011;19554;42.652;23.364;2023-08-07T08:58:55;6.10;;;1.48;;
33190;SDS011;19554;42.652;23.364;2023-08-07T09:01:21;1.65;;;1.52;;
33190;SDS011;19554;42.652;23.364;2023-08-07T09:03:47;2.72;;;1.30;;
33190;SDS011;19554;42.652;23.364;2023-08-07T09:06:13;1.75;;;1.33;;
33190;SDS011;19554;42.652;23.364;2023-08-07T09:08:42;2.08;;;1.00;;
33190;SDS011;19554;42.652;23.364;2023-08-07T09:11:10;2.65;;;1.33;;
33190;SDS011;19554;42.652;23.364;2023-08-07T09:13:36;3.03;;;2.40;;
33190;SDS011;19554;42.652;23.364;2023-08-07T09:16:03;1.70;;;1.60;;
33190;SDS011;19554;42.652;23.364;2023-08-07T09:18:29;1.65;;;1.55;;
33190;SDS011;19554;42.652;23.364;2023-08-07T09:20:56;3.22;;;1.25;;
33190;SDS011;19554;42.652;23.364;2023-08-07T09:23:22;2.40;;;1.40;;
33190;SDS011;19554;42.652;23.364;2023-08-07T09:25:55;2.05;;;1.50;;
33190;SDS011;19554;42.652;23.364;2023-08-07T09:28:24;2.55;;;1.75;;
33190;SDS011;19554;42.652;23.364;2023-08-07T09:30:51;3.97;;;1.70;;
33190;SDS011;19554;42.652;23.364;2023-08-07T09:33:23;2.33;;;1.25;;
33190;SDS011;19554;42.652;23.364;2023-08-07T09:35:52;5.90;;;1.50;;
33190;SDS011;19554;42.652;23.364;2023-08-07T09:38:22;2.50;;;1.73;;
33190;SDS011;19554;42.652;23.364;2023-08-07T09:40:48;2.65;;;1.50;;
33190;SDS011;19554;42.652;23.364;2023-08-07T09:43:20;1.75;;;1.58;;
33190;SDS011;19554;42.652;23.364;2023-08-07T09:45:46;2.55;;;1.67;;
33190;SDS011;19554;42.652;23.364;2023-08-07T09:48:11;2.75;;;1.63;;
33190;SDS011;19554;42.652;23.364;2023-08-07T09:50:38;1.48;;;1.38;;
33190;SDS011;19554;42.652;23.364;2023-08-07T09:53:03;3.20;;;2.22;;
33190;SDS011;19554;42.652;23.364;2023-08-07T09:55:28;3.90;;;2.08;;
33190;SDS011;19554;42.652;23.364;2023-08-07T09:57:54;3.50;;;1.80;;
33190;SDS011;19554;42.652;23.364;2023-08-07T10:00:20;6.70;;;1.48;;
33190;SDS011;19554;42.652;23.364;2023-08-07T10:02:47;1.95;;;1.77;;
33190;SDS011;19554;42.652;23.364;2023-08-07T10:05:14;2.05;;;1.73;;
33190;SDS011;19554;42.652;23.364;2023-08-07T10:07:40;2.42;;;1.90;;
33190;SDS011;19554;42.652;23.364;2023-08-07T10:10:06;1.55;;;1.45;;
33190;SDS011;19554;42.652;23.364;2023-08-07T10:12:32;1.92;;;1.60;;
33190;SDS011;19554;42.652;23.364;2023-08-07T10:14:59;3.70;;;1.80;;
33190;SDS011;19554;42.652;23.364;2023-08-07T10:17:25;2.30;;;1.67;;
33190;SDS011;19554;42.652;23.364;2023-08-07T10:19:52;2.58;;;1.60;;
33190;SDS011;19554;42.652;23.364;2023-08-07T10:22:21;2.10;;;1.50;;
33190;SDS011;19554;42.652;23.364;2023-08-07T10:24:50;2.80;;;1.80;;
33190;SDS011;19554;42.652;23.364;2023-08-07T10:27:18;4.60;;;1.85;;
33190;SDS011;19554;42.652;23.364;2023-08-07T10:29:45;2.97;;;1.60;;
33190;SDS011;19554;42.652;23.364;2023-08-07T10:32:12;5.55;;;2.30;;
33190;SDS011;19554;42.652;23.364;2023-08-07T10:34:40;3.08;;;1.40;;
33190;SDS011;19554;42.652;23.364;2023-08-07T10:37:25;5.05;;;2.10;;
33190;SDS011;19554;42.652;23.364;2023-08-07T10:40:00;2.65;;;1.67;;
33190;SDS011;19554;42.652;23.364;2023-08-07T10:45:25;1.77;;;1.52;;
33190;SDS011;19554;42.652;23.364;2023-08-07T10:48:01;3.72;;;1.98;;
33190;SDS011;19554;42.652;23.364;2023-08-07T10:50:33;3.35;;;1.90;;
33190;SDS011;19554;42.652;23.364;2023-08-07T10:55:26;2.10;;;1.50;;
33190;SDS011;19554;42.652;23.364;2023-08-07T10:57:56;3.22;;;1.58;;
33190;SDS011;19554;42.652;23.364;2023-08-07T11:00:25;2.35;;;1.70;;
33190;SDS011;19554;42.652;23.364;2023-08-07T11:05:17;4.07;;;1.70;;
33190;SDS011;19554;42.652;23.364;2023-08-07T11:07:44;7.28;;;2.05;;
33190;SDS011;19554;42.652;23.364;2023-08-07T11:10:12;1.65;;;1.55;;
33190;SDS011;19554;42.652;23.364;2023-08-07T11:12:42;3.58;;;1.98;;
33190;SDS011;19554;42.652;23.364;2023-08-07T11:15:11;1.60;;;1.50;;
33190;SDS011;19554;42.652;23.364;2023-08-07T11:17:38;4.03;;;1.83;;
33190;SDS011;19554;42.652;23.364;2023-08-07T11:20:05;5.95;;;1.75;;
33190;SDS011;19554;42.652;23.364;2023-08-07T11:22:31;2.78;;;2.15;;
33190;SDS011;19554;42.652;23.364;2023-08-07T11:24:56;5.18;;;1.63;;
33190;SDS011;19554;42.652;23.364;2023-08-07T11:27:22;1.80;;;1.70;;
33190;SDS011;19554;42.652;23.364;2023-08-07T11:29:48;2.40;;;1.73;;
33190;SDS011;19554;42.652;23.364;2023-08-07T11:32:14;1.70;;;1.60;;
33190;SDS011;19554;42.652;23.364;2023-08-07T11:34:40;3.03;;;1.75;;
33190;SDS011;19554;42.652;23.364;2023-08-07T11:37:05;2.22;;;1.60;;
33190;SDS011;19554;42.652;23.364;2023-08-07T11:39:31;1.73;;;1.60;;
33190;SDS011;19554;42.652;23.364;2023-08-07T11:41:56;1.70;;;1.60;;
33190;SDS011;19554;42.652;23.364;2023-08-07T11:44:22;2.58;;;1.60;;
33190;SDS011;19554;42.652;23.364;2023-08-07T11:46:48;1.55;;;1.45;;
33190;SDS011;19554;42.652;23.364;2023-08-07T11:49:15;3.90;;;1.48;;
33190;SDS011;19554;42.652;23.364;2023-08-07T11:51:41;1.90;;;1.80;;
33190;SDS011;19554;42.652;23.364;2023-08-07T11:54:06;3.20;;;1.40;;
33190;SDS011;19554;42.652;23.364;2023-08-07T11:56:32;4.25;;;1.98;;
33190;SDS011;19554;42.652;23.364;2023-08-07T11:58:57;2.88;;;1.63;;
33190;SDS011;19554;42.652;23.364;2023-08-07T12:01:24;4.72;;;1.65;;
33190;SDS011;19554;42.652;23.364;2023-08-07T12:03:55;2.72;;;1.35;;
33190;SDS011;19554;42.652;23.364;2023-08-07T12:06:29;2.22;;;1.35;;
33190;SDS011;19554;42.652;23.364;2023-08-07T12:08:55;4.07;;;1.60;;
33190;SDS011;19554;42.652;23.364;2023-08-07T12:11:22;1.42;;;1.30;;
33190;SDS011;19554;42.652;23.364;2023-08-07T12:13:48;3.03;;;1.63;;
33190;SDS011;19554;42.652;23.364;2023-08-07T12:16:14;1.60;;;1.40;;
33190;SDS011;19554;42.652;23.364;2023-08-07T12:18:46;5.70;;;1.38;;
33190;SDS011;19554;42.652;23.364;2023-08-07T12:21:13;2.13;;;1.45;;
33190;SDS011;19554;42.652;23.364;2023-08-07T12:23:40;2.15;;;1.80;;
33190;SDS011;19554;42.652;23.364;2023-08-07T12:26:06;1.52;;;1.40;;
33190;SDS011;19554;42.652;23.364;2023-08-07T12:28:32;3.35;;;1.25;;
33190;SDS011;19554;42.652;23.364;2023-08-07T12:30:59;1.65;;;1.55;;
33190;SDS011;19554;42.652;23.364;2023-08-07T12:33:25;6.03;;;1.85;;
33190;SDS011;19554;42.652;23.364;2023-08-07T12:35:50;2.60;;;2.08;;
33190;SDS011;19554;42.652;23.364;2023-08-07T12:38:16;1.50;;;1.40;;
33190;SDS011;19554;42.652;23.364;2023-08-07T12:40:42;1.70;;;1.60;;
33190;SDS011;19554;42.652;23.364;2023-08-07T12:43:08;2.97;;;1.70;;
33190;SDS011;19554;42.652;23.364;2023-08-07T12:45:34;1.75;;;1.50;;
33190;SDS011;19554;42.652;23.364;2023-08-07T12:48:00;3.78;;;1.75;;
33190;SDS011;19554;42.652;23.364;2023-08-07T12:50:26;2.65;;;1.60;;
33190;SDS011;19554;42.652;23.364;2023-08-07T12:52:52;2.30;;;2.10;;
33190;SDS011;19554;42.652;23.364;2023-08-07T12:55:18;3.53;;;2.00;;
33190;SDS011;19554;42.652;23.364;2023-08-07T12:57:44;10.70;;;2.40;;
33190;SDS011;19554;42.652;23.364;2023-08-07T13:00:10;2.00;;;1.80;;
33190;SDS011;19554;42.652;23.364;2023-08-07T13:02:42;2.15;;;1.95;;
33190;SDS011;19554;42.652;23.364;2023-08-07T13:05:08;2.00;;;1.80;;
33190;SDS011;19554;42.652;23.364;2023-08-07T13:07:35;4.68;;;1.90;;
33190;SDS011;19554;42.652;23.364;2023-08-07T13:10:02;1.80;;;1.48;;
33190;SDS011;19554;42.652;23.364;2023-08-07T13:12:29;2.17;;;1.80;;
33190;SDS011;19554;42.652;23.364;2023-08-07T13:14:54;2.55;;;2.35;;
33190;SDS011;19554;42.652;23.364;2023-08-07T13:17:19;2.83;;;2.10;;
33190;SDS011;19554;42.652;23.364;2023-08-07T13:19:45;3.92;;;1.90;;
33190;SDS011;19554;42.652;23.364;2023-08-07T13:22:10;3.67;;;1.88;;
33190;SDS011;19554;42.652;23.364;2023-08-07T13:24:35;4.40;;;1.73;;
33190;SDS011;19554;42.652;23.364;2023-08-07T13:27:01;2.88;;;1.33;;
33190;SDS011;19554;42.652;23.364;2023-08-07T13:29:27;3.42;;;2.25;;
33190;SDS011;19554;42.652;23.364;2023-08-07T13:31:54;2.20;;;2.00;;
33190;SDS011;19554;42.652;23.364;2023-08-07T13:34:20;4.43;;;2.00;;
33190;SDS011;19554;42.652;23.364;2023-08-07T13:36:45;2.72;;;1.83;;
33190;SDS011;19554;42.652;23.364;2023-08-07T13:39:11;3.85;;;1.90;;
33190;SDS011;19554;42.652;23.364;2023-08-07T13:41:36;5.85;;;1.95;;
33190;SDS011;19554;42.652;23.364;2023-08-07T13:44:01;2.70;;;2.13;;
33190;SDS011;19554;42.652;23.364;2023-08-07T13:46:27;4.85;;;1.98;;
33190;SDS011;19554;42.652;23.364;2023-08-07T13:48:53;3.88;;;1.70;;
33190;SDS011;19554;42.652;23.364;2023-08-07T13:51:19;3.47;;;1.83;;
33190;SDS011;19554;42.652;23.364;2023-08-07T13:53:44;3.88;;;1.75;;
33190;SDS011;19554;42.652;23.364;2023-08-07T13:56:10;2.08;;;1.80;;
33190;SDS011;19554;42.652;23.364;2023-08-07T13:58:37;2.13;;;1.92;;
33190;SDS011;19554;42.652;23.364;2023-08-07T14:01:05;4.82;;;1.90;;
33190;SDS011;19554;42.652;23.364;2023-08-07T14:03:31;2.47;;;1.77;;
33190;SDS011;19554;42.652;23.364;2023-08-07T14:05:57;4.93;;;2.00;;
33190;SDS011;19554;42.652;23.364;2023-08-07T14:08:22;3.42;;;1.70;;
33190;SDS011;19554;42.652;23.364;2023-08-07T14:10:48;2.33;;;2.10;;
33190;SDS011;19554;42.652;23.364;2023-08-07T14:13:14;7.97;;;6.65;;
33190;SDS011;19554;42.652;23.364;2023-08-07T14:15:41;2.03;;;1.83;;
33190;SDS011;19554;42.652;23.364;2023-08-07T14:18:06;2.92;;;2.10;;
33190;SDS011;19554;42.652;23.364;2023-08-07T14:20:32;2.90;;;2.10;;
33190;SDS011;19554;42.652;23.364;2023-08-07T14:22:57;4.50;;;2.15;;
33190;SDS011;19554;42.652;23.364;2023-08-07T14:25:23;2.03;;;1.90;;
33190;SDS011;19554;42.652;23.364;2023-08-07T14:27:48;3.17;;;1.80;;
33190;SDS011;19554;42.652;23.364;2023-08-07T14:30:14;2.15;;;1.73;;
33190;SDS011;19554;42.652;23.364;2023-08-07T14:32:40;7.20;;;2.00;;
33190;SDS011;19554;42.652;23.364;2023-08-07T14:35:07;2.90;;;2.30;;
33190;SDS011;19554;42.652;23.364;2023-08-07T14:37:33;2.22;;;1.90;;
33190;SDS011;19554;42.652;23.364;2023-08-07T14:39:58;2.25;;;1.60;;
33190;SDS011;19554;42.652;23.364;2023-08-07T14:42:24;2.03;;;1.80;;